sensor_id;sensor_type;location;lat;lon;timestamp;pressure;altitude;pressure_sealevel;temperature;humidity
74915;BME280;63475;45.140;-75.616;2023-05-16T00:00:15;100037.44;;;21.20;22.64
74915;BME280;63475;45.140;-75.616;2023-05-16T00:01:18;100046.16;;;21.16;22.71
74915;BME280;63475;45.140;-75.616;2023-05-16T00:02:21;100041.03;;;21.06;22.45
74915;BME280;63475;45.140;-75.616;2023-05-16T00:03:24;100043.16;;;21.11;22.33
74915;BME280;63475;45.140;-75.616;2023-05-16T00:04:27;100045.03;;;21.10;22.12
74915;BME280;63475;45.140;-75.616;2023-05-16T00:05:30;100047.03;;;21.01;22.00
74915;BME280;63475;45.140;-75.616;2023-05-16T00:06:33;100050.53;;;20.81;21.92
74915;BME280;63475;45.140;-75.616;2023-05-16T00:07:36;100040.81;;;20.86;21.77
74915;BME280;63475;45.140;-75.616;2023-05-16T00:08:39;100046.22;;;20.86;21.63
74915;BME280;63475;45.140;-75.616;2023-05-16T00:09:42;100039.50;;;20.82;21.49
74915;BME280;63475;45.140;-75.616;2023-05-16T00:10:45;100041.38;;;20.82;21.49
74915;BME280;63475;45.140;-75.616;2023-05-16T00:11:47;100037.63;;;20.68;21.37
74915;BME280;63475;45.140;-75.616;2023-05-16T00:12:51;100043.41;;;20.65;21.31
74915;BME280;63475;45.140;-75.616;2023-05-16T00:13:54;100043.41;;;20.65;21.41
74915;BME280;63475;45.140;-75.616;2023-05-16T00:14:56;100034.66;;;20.63;21.43
74915;BME280;63475;45.140;-75.616;2023-05-16T00:16:00;100041.19;;;20.54;21.19
74915;BME280;63475;45.140;-75.616;2023-05-16T00:17:04;100041.38;;;20.52;21.09
74915;BME280;63475;45.140;-75.616;2023-05-16T00:18:13;100036.47;;;20.48;21.31
74915;BME280;63475;45.140;-75.616;2023-05-16T00:19:18;100035.94;;;20.38;21.48
74915;BME280;63475;45.140;-75.616;2023-05-16T00:20:21;100039.28;;;20.40;21.18
74915;BME280;63475;45.140;-75.616;2023-05-16T00:21:26;100038.91;;;20.43;21.44
74915;BME280;63475;45.140;-75.616;2023-05-16T00:22:28;100034.06;;;20.38;21.39
74915;BME280;63475;45.140;-75.616;2023-05-16T00:23:31;100027.88;;;20.29;21.23
74915;BME280;63475;45.140;-75.616;2023-05-16T00:24:34;100035.72;;;20.24;21.38
74915;BME280;63475;45.140;-75.616;2023-05-16T00:25:37;100028.97;;;20.20;21.38
74915;BME280;63475;45.140;-75.616;2023-05-16T00:26:39;100028.13;;;20.05;21.53
74915;BME280;63475;45.140;-75.616;2023-05-16T00:27:42;100029.50;;;20.01;21.66
74915;BME280;63475;45.140;-75.616;2023-05-16T00:28:45;100035.03;;;19.93;21.88
74915;BME280;63475;45.140;-75.616;2023-05-16T00:29:48;100026.25;;;19.91;21.90
74915;BME280;63475;45.140;-75.616;2023-05-16T00:30:50;100022.94;;;19.81;22.03
74915;BME280;63475;45.140;-75.616;2023-05-16T00:31:53;100022.94;;;19.81;21.89
74915;BME280;63475;45.140;-75.616;2023-05-16T00:32:56;100017.28;;;19.90;21.91
74915;BME280;63475;45.140;-75.616;2023-05-16T00:33:58;100018.13;;;19.91;22.11
74915;BME280;63475;45.140;-75.616;2023-05-16T00:35:02;100013.38;;;19.93;21.53
74915;BME280;63475;45.140;-75.616;2023-05-16T00:36:05;100020.06;;;19.97;21.69
74915;BME280;63475;45.140;-75.616;2023-05-16T00:37:07;100017.75;;;19.94;21.73
74915;BME280;63475;45.140;-75.616;2023-05-16T00:38:10;100014.03;;;19.95;21.80
74915;BME280;63475;45.140;-75.616;2023-05-16T00:39:13;100010.66;;;19.93;21.60
74915;BME280;63475;45.140;-75.616;2023-05-16T00:40:16;100012.72;;;19.91;21.85
74915;BME280;63475;45.140;-75.616;2023-05-16T00:41:18;100012.09;;;19.81;22.11
74915;BME280;63475;45.140;-75.616;2023-05-16T00:42:21;100009.50;;;19.73;22.17
74915;BME280;63475;45.140;-75.616;2023-05-16T00:43:24;100012.38;;;19.71;22.30
74915;BME280;63475;45.140;-75.616;2023-05-16T00:44:27;100017.81;;;19.63;22.52
74915;BME280;63475;45.140;-75.616;2023-05-16T00:45:30;100025.09;;;19.62;22.41
74915;BME280;63475;45.140;-75.616;2023-05-16T00:46:32;100018.34;;;19.58;22.47
74915;BME280;63475;45.140;-75.616;2023-05-16T00:47:35;100020.31;;;19.50;22.32
74915;BME280;63475;45.140;-75.616;2023-05-16T00:48:38;100010.31;;;19.50;22.21
74915;BME280;63475;45.140;-75.616;2023-05-16T00:49:41;100019.75;;;19.54;22.36
74915;BME280;63475;45.140;-75.616;2023-05-16T00:50:44;100016.94;;;19.48;22.42
74915;BME280;63475;45.140;-75.616;2023-05-16T00:51:47;100018.31;;;19.44;22.63
74915;BME280;63475;45.140;-75.616;2023-05-16T00:52:50;100012.94;;;19.36;22.62
74915;BME280;63475;45.140;-75.616;2023-05-16T00:53:54;100016.50;;;19.36;22.83
74915;BME280;63475;45.140;-75.616;2023-05-16T00:54:58;100016.56;;;19.28;23.09
74915;BME280;63475;45.140;-75.616;2023-05-16T00:56:01;100022.19;;;19.18;23.21
74915;BME280;63475;45.140;-75.616;2023-05-16T00:57:04;100015.28;;;19.16;23.75
74915;BME280;63475;45.140;-75.616;2023-05-16T00:58:08;100020.38;;;19.11;24.14
74915;BME280;63475;45.140;-75.616;2023-05-16T00:59:11;100014.69;;;19.06;24.52
74915;BME280;63475;45.140;-75.616;2023-05-16T01:00:13;100017.91;;;19.01;24.62
74915;BME280;63475;45.140;-75.616;2023-05-16T01:01:22;100024.34;;;19.00;24.79
74915;BME280;63475;45.140;-75.616;2023-05-16T01:02:27;100022.16;;;18.95;25.08
74915;BME280;63475;45.140;-75.616;2023-05-16T01:03:30;100020.00;;;18.91;25.41
74915;BME280;63475;45.140;-75.616;2023-05-16T01:04:33;100018.66;;;18.87;26.00
74915;BME280;63475;45.140;-75.616;2023-05-16T01:05:36;100031.00;;;18.81;25.76
74915;BME280;63475;45.140;-75.616;2023-05-16T01:06:39;100019.88;;;18.76;26.33
74915;BME280;63475;45.140;-75.616;2023-05-16T01:07:42;100017.50;;;18.73;26.86
74915;BME280;63475;45.140;-75.616;2023-05-16T01:08:44;100025.63;;;18.73;26.45
74915;BME280;63475;45.140;-75.616;2023-05-16T01:09:47;100020.25;;;18.65;26.05
74915;BME280;63475;45.140;-75.616;2023-05-16T01:13:53;100022.66;;;18.60;26.87
74915;BME280;63475;45.140;-75.616;2023-05-16T01:15:55;100025.38;;;18.52;26.79
74915;BME280;63475;45.140;-75.616;2023-05-16T01:18:22;100020.13;;;18.50;26.90
74915;BME280;63475;45.140;-75.616;2023-05-16T01:21:04;100010.38;;;18.41;27.72
74915;BME280;63475;45.140;-75.616;2023-05-16T01:23:51;100016.09;;;18.38;27.56
74915;BME280;63475;45.140;-75.616;2023-05-16T01:25:10;100023.75;;;18.35;27.50
74915;BME280;63475;45.140;-75.616;2023-05-16T01:26:21;100021.22;;;18.33;26.84
74915;BME280;63475;45.140;-75.616;2023-05-16T01:27:25;100025.44;;;18.27;26.45
74915;BME280;63475;45.140;-75.616;2023-05-16T01:28:29;100022.91;;;18.26;27.26
74915;BME280;63475;45.140;-75.616;2023-05-16T01:29:32;100020.72;;;18.21;27.32
74915;BME280;63475;45.140;-75.616;2023-05-16T01:30:37;100022.44;;;18.14;27.02
74915;BME280;63475;45.140;-75.616;2023-05-16T01:31:40;100029.00;;;18.20;26.77
74915;BME280;63475;45.140;-75.616;2023-05-16T01:32:43;100023.75;;;18.18;27.23
74915;BME280;63475;45.140;-75.616;2023-05-16T01:33:47;100035.56;;;18.17;26.97
74915;BME280;63475;45.140;-75.616;2023-05-16T01:34:51;100032.88;;;18.17;26.33
74915;BME280;63475;45.140;-75.616;2023-05-16T01:36:23;100031.19;;;18.16;26.63
74915;BME280;63475;45.140;-75.616;2023-05-16T01:37:34;100030.88;;;18.03;27.12
74915;BME280;63475;45.140;-75.616;2023-05-16T01:38:55;100034.44;;;18.04;27.23
74915;BME280;63475;45.140;-75.616;2023-05-16T01:40:11;100027.16;;;18.04;26.94
74915;BME280;63475;45.140;-75.616;2023-05-16T01:41:21;100029.19;;;18.10;27.09
74915;BME280;63475;45.140;-75.616;2023-05-16T01:42:28;100028.53;;;18.08;27.29
74915;BME280;63475;45.140;-75.616;2023-05-16T01:43:37;100034.25;;;18.05;27.43
74915;BME280;63475;45.140;-75.616;2023-05-16T01:44:58;100036.63;;;18.00;27.09
74915;BME280;63475;45.140;-75.616;2023-05-16T01:46:23;100030.03;;;18.03;26.95
74915;BME280;63475;45.140;-75.616;2023-05-16T01:47:29;100036.63;;;18.00;26.54
74915;BME280;63475;45.140;-75.616;2023-05-16T01:49:19;100033.53;;;17.95;26.51
74915;BME280;63475;45.140;-75.616;2023-05-16T01:50:24;100041.13;;;18.00;26.54
74915;BME280;63475;45.140;-75.616;2023-05-16T01:51:31;100037.28;;;18.02;26.58
74915;BME280;63475;45.140;-75.616;2023-05-16T01:52:45;100040.66;;;18.04;26.63
74915;BME280;63475;45.140;-75.616;2023-05-16T01:53:53;100043.00;;;17.99;26.44
74915;BME280;63475;45.140;-75.616;2023-05-16T01:55:01;100035.22;;;17.96;26.52
74915;BME280;63475;45.140;-75.616;2023-05-16T01:56:09;100039.44;;;17.98;26.65
74915;BME280;63475;45.140;-75.616;2023-05-16T01:57:12;100039.31;;;17.92;26.98
74915;BME280;63475;45.140;-75.616;2023-05-16T01:58:19;100036.28;;;17.87;26.80
74915;BME280;63475;45.140;-75.616;2023-05-16T01:59:23;100030.53;;;17.82;26.93
74915;BME280;63475;45.140;-75.616;2023-05-16T02:00:26;100033.06;;;17.75;27.02
74915;BME280;63475;45.140;-75.616;2023-05-16T02:01:29;100030.53;;;17.74;27.00
74915;BME280;63475;45.140;-75.616;2023-05-16T02:02:32;100030.84;;;17.71;27.04
74915;BME280;63475;45.140;-75.616;2023-05-16T02:03:35;100032.53;;;17.72;27.26
74915;BME280;63475;45.140;-75.616;2023-05-16T02:04:38;100030.53;;;17.74;27.43
74915;BME280;63475;45.140;-75.616;2023-05-16T02:05:40;100033.91;;;17.76;27.42
74915;BME280;63475;45.140;-75.616;2023-05-16T02:06:43;100031.03;;;17.77;26.99
74915;BME280;63475;45.140;-75.616;2023-05-16T02:07:47;100033.91;;;17.76;26.97
74915;BME280;63475;45.140;-75.616;2023-05-16T02:08:50;100036.44;;;17.69;28.14
74915;BME280;63475;45.140;-75.616;2023-05-16T02:09:53;100033.56;;;17.79;27.15
74915;BME280;63475;45.140;-75.616;2023-05-16T02:10:55;100025.47;;;17.71;27.23
74915;BME280;63475;45.140;-75.616;2023-05-16T02:11:58;100029.88;;;17.63;27.26
74915;BME280;63475;45.140;-75.616;2023-05-16T02:13:01;100029.34;;;17.60;28.08
74915;BME280;63475;45.140;-75.616;2023-05-16T02:14:04;100020.06;;;17.54;27.83
74915;BME280;63475;45.140;-75.616;2023-05-16T02:15:07;100019.72;;;17.49;29.18
74915;BME280;63475;45.140;-75.616;2023-05-16T02:16:11;100025.50;;;17.46;28.90
74915;BME280;63475;45.140;-75.616;2023-05-16T02:17:13;100024.47;;;17.39;29.29
74915;BME280;63475;45.140;-75.616;2023-05-16T02:18:16;100027.31;;;17.38;29.37
74915;BME280;63475;45.140;-75.616;2023-05-16T02:19:19;100026.47;;;17.37;29.03
74915;BME280;63475;45.140;-75.616;2023-05-16T02:20:22;100018.88;;;17.33;29.31
74915;BME280;63475;45.140;-75.616;2023-05-16T02:21:25;100019.38;;;17.28;28.92
74915;BME280;63475;45.140;-75.616;2023-05-16T02:22:27;100012.47;;;17.25;28.92
74915;BME280;63475;45.140;-75.616;2023-05-16T02:23:30;100008.28;;;17.23;29.18
74915;BME280;63475;45.140;-75.616;2023-05-16T02:24:33;100015.50;;;17.22;29.73
74915;BME280;63475;45.140;-75.616;2023-05-16T02:25:36;100006.75;;;17.20;30.08
74915;BME280;63475;45.140;-75.616;2023-05-16T02:26:39;100007.91;;;17.18;30.37
74915;BME280;63475;45.140;-75.616;2023-05-16T02:27:42;100013.63;;;17.15;29.51
74915;BME280;63475;45.140;-75.616;2023-05-16T02:28:44;100010.25;;;17.13;29.55
74915;BME280;63475;45.140;-75.616;2023-05-16T02:29:47;100017.34;;;17.14;29.12
74915;BME280;63475;45.140;-75.616;2023-05-16T02:30:57;100018.19;;;17.14;28.68
74915;BME280;63475;45.140;-75.616;2023-05-16T02:32:00;100022.06;;;17.20;28.37
74915;BME280;63475;45.140;-75.616;2023-05-16T02:33:02;100021.06;;;17.29;27.77
74915;BME280;63475;45.140;-75.616;2023-05-16T02:34:05;100026.31;;;17.39;28.00
74915;BME280;63475;45.140;-75.616;2023-05-16T02:35:08;100029.84;;;17.39;27.92
74915;BME280;63475;45.140;-75.616;2023-05-16T02:36:11;100028.00;;;17.40;27.70
74915;BME280;63475;45.140;-75.616;2023-05-16T02:37:13;100028.50;;;17.35;27.98
74915;BME280;63475;45.140;-75.616;2023-05-16T02:38:16;100032.19;;;17.34;28.10
74915;BME280;63475;45.140;-75.616;2023-05-16T02:39:19;100015.50;;;17.22;27.93
74915;BME280;63475;45.140;-75.616;2023-05-16T02:40:21;100023.91;;;17.27;28.01
74915;BME280;63475;45.140;-75.616;2023-05-16T02:41:24;100011.97;;;17.30;28.28
74915;BME280;63475;45.140;-75.616;2023-05-16T02:42:27;100007.75;;;17.27;28.30
74915;BME280;63475;45.140;-75.616;2023-05-16T02:43:30;100018.22;;;17.22;28.25
74915;BME280;63475;45.140;-75.616;2023-05-16T02:44:33;100014.81;;;17.12;28.33
74915;BME280;63475;45.140;-75.616;2023-05-16T02:45:35;100010.59;;;17.10;28.47
74915;BME280;63475;45.140;-75.616;2023-05-16T02:46:38;100011.94;;;17.14;28.34
74915;BME280;63475;45.140;-75.616;2023-05-16T02:47:41;99998.97;;;17.09;28.20
74915;BME280;63475;45.140;-75.616;2023-05-16T02:48:44;100005.16;;;17.02;28.37
74915;BME280;63475;45.140;-75.616;2023-05-16T02:49:46;100005.28;;;16.92;28.53
74915;BME280;63475;45.140;-75.616;2023-05-16T02:50:49;100003.78;;;16.89;28.47
74915;BME280;63475;45.140;-75.616;2023-05-16T02:51:53;100002.28;;;16.95;28.59
74915;BME280;63475;45.140;-75.616;2023-05-16T02:52:55;100018.59;;;16.93;29.03
74915;BME280;63475;45.140;-75.616;2023-05-16T02:54:01;100003.97;;;16.96;28.77
74915;BME280;63475;45.140;-75.616;2023-05-16T02:55:04;100003.63;;;16.99;28.68
74915;BME280;63475;45.140;-75.616;2023-05-16T02:56:22;99995.03;;;16.95;28.45
74915;BME280;63475;45.140;-75.616;2023-05-16T02:57:25;99996.88;;;16.95;28.86
74915;BME280;63475;45.140;-75.616;2023-05-16T02:58:28;99994.69;;;16.90;28.70
74915;BME280;63475;45.140;-75.616;2023-05-16T02:59:30;99995.84;;;16.88;28.74
74915;BME280;63475;45.140;-75.616;2023-05-16T03:00:33;99994.66;;;16.82;28.93
74915;BME280;63475;45.140;-75.616;2023-05-16T03:01:35;99992.44;;;16.70;29.12
74915;BME280;63475;45.140;-75.616;2023-05-16T03:02:38;99984.16;;;16.55;29.58
74915;BME280;63475;45.140;-75.616;2023-05-16T03:03:41;99974.53;;;16.52;29.35
74915;BME280;63475;45.140;-75.616;2023-05-16T03:04:44;99985.47;;;16.59;29.40
74915;BME280;63475;45.140;-75.616;2023-05-16T03:05:47;99984.16;;;16.55;29.29
74915;BME280;63475;45.140;-75.616;2023-05-16T03:06:50;99971.47;;;16.47;29.43
74915;BME280;63475;45.140;-75.616;2023-05-16T03:07:53;99975.81;;;16.40;29.80
74915;BME280;63475;45.140;-75.616;2023-05-16T03:08:55;99971.09;;;16.34;29.86
74915;BME280;63475;45.140;-75.616;2023-05-16T03:09:58;99976.28;;;16.27;29.93
74915;BME280;63475;45.140;-75.616;2023-05-16T03:11:01;99976.97;;;16.30;29.88
74915;BME280;63475;45.140;-75.616;2023-05-16T03:12:03;99978.34;;;16.34;29.83
74915;BME280;63475;45.140;-75.616;2023-05-16T03:13:07;99973.09;;;16.32;29.75
74915;BME280;63475;45.140;-75.616;2023-05-16T03:14:10;99973.94;;;16.33;30.09
74915;BME280;63475;45.140;-75.616;2023-05-16T03:15:13;99974.28;;;16.30;30.47
74915;BME280;63475;45.140;-75.616;2023-05-16T03:16:16;99979.81;;;16.28;30.39
74915;BME280;63475;45.140;-75.616;2023-05-16T03:17:19;99967.84;;;16.22;30.60
74915;BME280;63475;45.140;-75.616;2023-05-16T03:18:21;99972.53;;;16.20;30.63
74915;BME280;63475;45.140;-75.616;2023-05-16T03:19:24;99973.53;;;16.19;30.83
74915;BME280;63475;45.140;-75.616;2023-05-16T03:20:27;99972.44;;;16.12;31.08
74915;BME280;63475;45.140;-75.616;2023-05-16T03:21:30;99970.41;;;16.06;31.06
74915;BME280;63475;45.140;-75.616;2023-05-16T03:22:32;99968.72;;;16.05;30.75
74915;BME280;63475;45.140;-75.616;2023-05-16T03:23:35;99972.78;;;16.09;30.87
74915;BME280;63475;45.140;-75.616;2023-05-16T03:24:38;99968.03;;;16.03;30.99
74915;BME280;63475;45.140;-75.616;2023-05-16T03:25:40;99961.28;;;15.99;31.07
74915;BME280;63475;45.140;-75.616;2023-05-16T03:26:44;99956.53;;;15.93;31.34
74915;BME280;63475;45.140;-75.616;2023-05-16T03:27:47;99951.31;;;15.91;31.27
74915;BME280;63475;45.140;-75.616;2023-05-16T03:28:49;99951.47;;;15.90;31.34
74915;BME280;63475;45.140;-75.616;2023-05-16T03:29:52;99958.53;;;15.91;31.08
74915;BME280;63475;45.140;-75.616;2023-05-16T03:30:55;99952.13;;;15.84;31.19
74915;BME280;63475;45.140;-75.616;2023-05-16T03:31:58;99956.03;;;15.89;31.18
74915;BME280;63475;45.140;-75.616;2023-05-16T03:33:00;99957.28;;;15.77;31.45
74915;BME280;63475;45.140;-75.616;2023-05-16T03:34:05;99950.06;;;15.78;31.40
74915;BME280;63475;45.140;-75.616;2023-05-16T03:35:08;99948.91;;;15.80;31.48
74915;BME280;63475;45.140;-75.616;2023-05-16T03:36:10;99946.59;;;15.85;31.29
74915;BME280;63475;45.140;-75.616;2023-05-16T03:37:13;99935.53;;;15.88;31.26
74915;BME280;63475;45.140;-75.616;2023-05-16T03:38:17;99934.47;;;15.81;31.41
74915;BME280;63475;45.140;-75.616;2023-05-16T03:39:20;99945.75;;;15.85;31.29
74915;BME280;63475;45.140;-75.616;2023-05-16T03:40:22;99939.91;;;15.89;31.15
74915;BME280;63475;45.140;-75.616;2023-05-16T03:41:25;99942.09;;;15.94;31.15
74915;BME280;63475;45.140;-75.616;2023-05-16T03:42:28;99934.31;;;15.83;31.47
74915;BME280;63475;45.140;-75.616;2023-05-16T03:43:30;99929.59;;;15.85;31.22
74915;BME280;63475;45.140;-75.616;2023-05-16T03:44:36;99929.59;;;15.85;31.39
74915;BME280;63475;45.140;-75.616;2023-05-16T03:45:39;99926.38;;;15.81;31.32
74915;BME280;63475;45.140;-75.616;2023-05-16T03:46:42;99927.47;;;15.71;31.58
74915;BME280;63475;45.140;-75.616;2023-05-16T03:47:44;99927.78;;;15.68;31.64
74915;BME280;63475;45.140;-75.616;2023-05-16T03:48:47;99919.06;;;15.66;31.67
74915;BME280;63475;45.140;-75.616;2023-05-16T03:49:50;99916.69;;;15.63;31.73
74915;BME280;63475;45.140;-75.616;2023-05-16T03:50:52;99910.78;;;15.59;31.70
74915;BME280;63475;45.140;-75.616;2023-05-16T03:51:55;99917.16;;;15.58;31.82
74915;BME280;63475;45.140;-75.616;2023-05-16T03:52:58;99917.94;;;15.50;32.12
74915;BME280;63475;45.140;-75.616;2023-05-16T03:54:01;99918.25;;;15.47;31.94
74915;BME280;63475;45.140;-75.616;2023-05-16T03:55:04;99922.16;;;15.53;31.99
74915;BME280;63475;45.140;-75.616;2023-05-16T03:56:07;99911.72;;;15.50;32.14
74915;BME280;63475;45.140;-75.616;2023-05-16T03:57:09;99913.72;;;15.48;32.06
74915;BME280;63475;45.140;-75.616;2023-05-16T03:58:12;99910.84;;;15.41;32.31
74915;BME280;63475;45.140;-75.616;2023-05-16T03:59:15;99910.31;;;15.38;32.39
74915;BME280;63475;45.140;-75.616;2023-05-16T04:00:18;99908.16;;;15.41;32.56
74915;BME280;63475;45.140;-75.616;2023-05-16T04:01:20;99909.16;;;15.40;32.59
74915;BME280;63475;45.140;-75.616;2023-05-16T04:02:23;99915.53;;;15.39;32.68
74915;BME280;63475;45.140;-75.616;2023-05-16T04:03:26;99918.91;;;15.41;32.65
74915;BME280;63475;45.140;-75.616;2023-05-16T04:04:31;99916.91;;;15.43;32.59
74915;BME280;63475;45.140;-75.616;2023-05-16T04:05:33;99922.19;;;15.35;32.58
74915;BME280;63475;45.140;-75.616;2023-05-16T04:06:36;99903.16;;;15.29;32.67
74915;BME280;63475;45.140;-75.616;2023-05-16T04:07:40;99904.13;;;15.19;33.22
74915;BME280;63475;45.140;-75.616;2023-05-16T04:08:42;99906.66;;;15.21;33.02
74915;BME280;63475;45.140;-75.616;2023-05-16T04:09:46;99904.81;;;15.21;32.65
74915;BME280;63475;45.140;-75.616;2023-05-16T04:10:48;99906.00;;;15.27;32.73
74915;BME280;63475;45.140;-75.616;2023-05-16T04:11:51;99897.78;;;15.29;32.65
74915;BME280;63475;45.140;-75.616;2023-05-16T04:12:53;99894.25;;;15.28;32.58
74915;BME280;63475;45.140;-75.616;2023-05-16T04:13:56;99889.88;;;15.27;32.56
74915;BME280;63475;45.140;-75.616;2023-05-16T04:15:01;99887.66;;;15.22;32.89
74915;BME280;63475;45.140;-75.616;2023-05-16T04:16:05;99892.53;;;15.19;32.77
74915;BME280;63475;45.140;-75.616;2023-05-16T04:17:08;99885.94;;;15.13;32.92
74915;BME280;63475;45.140;-75.616;2023-05-16T04:18:12;99883.63;;;15.18;32.93
74915;BME280;63475;45.140;-75.616;2023-05-16T04:19:15;99882.63;;;15.19;32.82
74915;BME280;63475;45.140;-75.616;2023-05-16T04:20:18;99887.47;;;15.16;33.06
74915;BME280;63475;45.140;-75.616;2023-05-16T04:21:21;99887.75;;;15.13;33.13
74915;BME280;63475;45.140;-75.616;2023-05-16T04:22:23;99889.50;;;15.04;33.40
74915;BME280;63475;45.140;-75.616;2023-05-16T04:23:26;99886.91;;;14.95;33.70
74915;BME280;63475;45.140;-75.616;2023-05-16T04:24:29;99886.47;;;14.99;33.59
74915;BME280;63475;45.140;-75.616;2023-05-16T04:25:32;99872.84;;;15.01;33.73
74915;BME280;63475;45.140;-75.616;2023-05-16T04:26:35;99884.44;;;15.01;33.56
74915;BME280;63475;45.140;-75.616;2023-05-16T04:27:38;99875.88;;;14.98;34.05
74915;BME280;63475;45.140;-75.616;2023-05-16T04:28:41;99875.88;;;14.98;34.06
74915;BME280;63475;45.140;-75.616;2023-05-16T04:29:43;99876.88;;;14.97;34.18
74915;BME280;63475;45.140;-75.616;2023-05-16T04:30:46;99870.66;;;14.96;34.39
74915;BME280;63475;45.140;-75.616;2023-05-16T04:31:49;99873.63;;;14.93;34.30
74915;BME280;63475;45.140;-75.616;2023-05-16T04:32:52;99866.72;;;14.90;34.58
74915;BME280;63475;45.140;-75.616;2023-05-16T04:33:55;99869.56;;;14.89;34.83
74915;BME280;63475;45.140;-75.616;2023-05-16T04:34:59;99864.19;;;14.89;34.72
74915;BME280;63475;45.140;-75.616;2023-05-16T04:36:02;99869.56;;;14.89;34.70
74915;BME280;63475;45.140;-75.616;2023-05-16T04:37:07;99863.34;;;14.88;34.58
74915;BME280;63475;45.140;-75.616;2023-05-16T04:38:10;99863.34;;;14.88;34.64
74915;BME280;63475;45.140;-75.616;2023-05-16T04:39:12;99855.44;;;14.87;35.34
74915;BME280;63475;45.140;-75.616;2023-05-16T04:40:15;99860.81;;;14.87;35.48
74915;BME280;63475;45.140;-75.616;2023-05-16T04:41:18;99863.66;;;14.85;35.17
74915;BME280;63475;45.140;-75.616;2023-05-16T04:42:21;99860.13;;;14.85;34.81
74915;BME280;63475;45.140;-75.616;2023-05-16T04:43:23;99861.66;;;14.87;34.67
74915;BME280;63475;45.140;-75.616;2023-05-16T04:44:27;99869.56;;;14.89;34.46
74915;BME280;63475;45.140;-75.616;2023-05-16T04:45:29;99867.03;;;14.87;34.51
74915;BME280;63475;45.140;-75.616;2023-05-16T04:46:32;99860.81;;;14.87;34.73
74915;BME280;63475;45.140;-75.616;2023-05-16T04:47:35;99854.91;;;14.83;34.50
74915;BME280;63475;45.140;-75.616;2023-05-16T04:48:37;99857.59;;;14.83;34.94
74915;BME280;63475;45.140;-75.616;2023-05-16T04:49:40;99864.97;;;14.81;35.20
74915;BME280;63475;45.140;-75.616;2023-05-16T04:50:43;99853.53;;;14.79;35.06
74915;BME280;63475;45.140;-75.616;2023-05-16T04:51:46;99861.59;;;14.79;35.23
74915;BME280;63475;45.140;-75.616;2023-05-16T04:52:49;99856.53;;;14.76;35.55
74915;BME280;63475;45.140;-75.616;2023-05-16T04:53:52;99853.53;;;14.79;35.15
74915;BME280;63475;45.140;-75.616;2023-05-16T04:54:54;99852.69;;;14.79;35.02
74915;BME280;63475;45.140;-75.616;2023-05-16T04:55:58;99853.53;;;14.79;35.10
74915;BME280;63475;45.140;-75.616;2023-05-16T04:57:01;99846.47;;;14.78;35.10
74915;BME280;63475;45.140;-75.616;2023-05-16T04:58:04;99851.34;;;14.75;35.24
74915;BME280;63475;45.140;-75.616;2023-05-16T04:59:07;99838.06;;;14.73;35.58
74915;BME280;63475;45.140;-75.616;2023-05-16T05:00:10;99845.56;;;14.70;35.68
74915;BME280;63475;45.140;-75.616;2023-05-16T05:01:13;99833.16;;;14.69;36.33
74915;BME280;63475;45.140;-75.616;2023-05-16T05:02:16;99829.78;;;14.67;36.79
74915;BME280;63475;45.140;-75.616;2023-05-16T05:03:18;99837.53;;;14.70;35.37
74915;BME280;63475;45.140;-75.616;2023-05-16T05:04:21;99830.47;;;14.69;36.62
74915;BME280;63475;45.140;-75.616;2023-05-16T05:05:24;99828.78;;;14.68;36.09
74915;BME280;63475;45.140;-75.616;2023-05-16T05:06:27;99823.56;;;14.66;35.41
74915;BME280;63475;45.140;-75.616;2023-05-16T05:07:30;99824.94;;;14.70;35.00
74915;BME280;63475;45.140;-75.616;2023-05-16T05:08:33;99822.25;;;14.70;35.50
74915;BME280;63475;45.140;-75.616;2023-05-16T05:09:36;99814.06;;;14.72;35.66
74915;BME280;63475;45.140;-75.616;2023-05-16T05:10:39;99822.41;;;14.69;35.11
74915;BME280;63475;45.140;-75.616;2023-05-16T05:11:41;99820.88;;;14.66;35.50
74915;BME280;63475;45.140;-75.616;2023-05-16T05:12:44;99817.19;;;14.67;35.73
74915;BME280;63475;45.140;-75.616;2023-05-16T05:13:47;99809.97;;;14.68;34.99
74915;BME280;63475;45.140;-75.616;2023-05-16T05:14:52;99809.69;;;14.71;35.18
74915;BME280;63475;45.140;-75.616;2023-05-16T05:15:55;99809.53;;;14.72;34.93
74915;BME280;63475;45.140;-75.616;2023-05-16T05:16:58;99802.31;;;14.73;35.01
74915;BME280;63475;45.140;-75.616;2023-05-16T05:18:00;99803.16;;;14.73;34.74
74915;BME280;63475;45.140;-75.616;2023-05-16T05:19:03;99804.47;;;14.69;35.02
74915;BME280;63475;45.140;-75.616;2023-05-16T05:20:06;99791.19;;;14.68;35.65
74915;BME280;63475;45.140;-75.616;2023-05-16T05:21:09;99792.09;;;14.58;35.17
74915;BME280;63475;45.140;-75.616;2023-05-16T05:22:12;99797.31;;;14.60;35.31
74915;BME280;63475;45.140;-75.616;2023-05-16T05:23:15;99804.91;;;14.65;35.13
74915;BME280;63475;45.140;-75.616;2023-05-16T05:24:18;99804.75;;;14.66;34.92
74915;BME280;63475;45.140;-75.616;2023-05-16T05:25:20;99804.63;;;14.68;35.08
74915;BME280;63475;45.140;-75.616;2023-05-16T05:26:23;99802.22;;;14.65;35.01
74915;BME280;63475;45.140;-75.616;2023-05-16T05:27:27;99808.44;;;14.65;35.26
74915;BME280;63475;45.140;-75.616;2023-05-16T05:28:29;99803.06;;;14.65;35.17
74915;BME280;63475;45.140;-75.616;2023-05-16T05:29:32;99803.91;;;14.66;35.00
74915;BME280;63475;45.140;-75.616;2023-05-16T05:30:35;99794.34;;;14.63;35.36
74915;BME280;63475;45.140;-75.616;2023-05-16T05:31:38;99802.53;;;14.62;34.96
74915;BME280;63475;45.140;-75.616;2023-05-16T05:32:40;99801.00;;;14.59;35.40
74915;BME280;63475;45.140;-75.616;2023-05-16T05:33:43;99796.03;;;14.64;35.24
74915;BME280;63475;45.140;-75.616;2023-05-16T05:34:46;99798.94;;;14.71;34.83
74915;BME280;63475;45.140;-75.616;2023-05-16T05:35:49;99794.88;;;14.67;35.07